Argo — SMOH — position and weather

sailwx.info

Track history (hours):
 
Tides and Currents Weather Stations Pressure Air Temp Water Temp Dewpoint Dewpoint Depression Visibility Wind Speed Wind Dir Waves Ship Positions

Argo

Last reported at 2014-Aug-20 07:28 UTC. Time now 2014-Aug-30 18:31 UTC.
Position N 59°20' E 018°05'.
Warning: this ship's position is 10 days out of date.

Length 26 m.

Type: Military. MMSI: 265591600.

Date/timePositionNaut miles runAvg speedWind from/ knotsBaromVisibWave heightAir tempDewpointWater temp
2014-Aug-20 07:28N 59°20' E 018°05'0 0.0
2014-Aug-19 20:14N 59°20' E 018°05'  
2014-Aug-14 06:10N 59°20' E 018°13'4 6.7
2014-Aug-14 05:33N 59°20' E 018°05'0 0.0
2014-Aug-14 04:33N 59°20' E 018°05'0 0.0
2014-Aug-14 03:33N 59°20' E 018°05'0 0.0
2014-Aug-14 02:33N 59°20' E 018°05'0 0.0
2014-Aug-14 01:33N 59°20' E 018°05'0 0.0
2014-Aug-14 00:33N 59°20' E 018°05'0 0.0
2014-Aug-13 23:33N 59°20' E 018°05'0 0.0
2014-Aug-13 22:33N 59°20' E 018°05'0 0.0
2014-Aug-13 21:33N 59°20' E 018°05'0 0.0
2014-Aug-13 20:33N 59°20' E 018°05'0 0.0
2014-Aug-13 19:33N 59°20' E 018°05'0 0.0
2014-Aug-13 18:33N 59°20' E 018°05'0 0.0
2014-Aug-13 17:33N 59°20' E 018°05'0 0.0
2014-Aug-13 16:33N 59°20' E 018°05'0 0.0
2014-Aug-13 15:33N 59°20' E 018°05'0 0.0
2014-Aug-13 14:33N 59°20' E 018°05'0 0.0
2014-Aug-13 13:21N 59°20' E 018°05'7 7.5
2014-Aug-13 12:25N 59°23' E 018°18'1 0.5
2014-Aug-13 09:26N 59°23' E 018°20'  
Track history (hours):
 
Tides and Currents Weather Stations Pressure Air Temp Water Temp Dewpoint Dewpoint Depression Visibility Wind Speed Wind Dir Waves Ship Positions

Argo

Last reported at 2014-Aug-20 07:28 UTC. Time now 2014-Aug-30 18:31 UTC.
Position N 59°20' E 018°05'.
Warning: this ship's position is 10 days out of date.

Length 26 m.

Type: Military. MMSI: 265591600.

Date/timePositionNaut miles runAvg speedWind from/ knotsBaromVisibWave heightAir tempDewpointWater temp
2014-Aug-20 07:28N 59°20' E 018°05'0 0.0
2014-Aug-19 20:14N 59°20' E 018°05'  
2014-Aug-14 06:10N 59°20' E 018°13'4 6.7
2014-Aug-14 05:33N 59°20' E 018°05'0 0.0
2014-Aug-14 04:33N 59°20' E 018°05'0 0.0
2014-Aug-14 03:33N 59°20' E 018°05'0 0.0
2014-Aug-14 02:33N 59°20' E 018°05'0 0.0
2014-Aug-14 01:33N 59°20' E 018°05'0 0.0
2014-Aug-14 00:33N 59°20' E 018°05'0 0.0
2014-Aug-13 23:33N 59°20' E 018°05'0 0.0
2014-Aug-13 22:33N 59°20' E 018°05'0 0.0
2014-Aug-13 21:33N 59°20' E 018°05'0 0.0
2014-Aug-13 20:33N 59°20' E 018°05'0 0.0
2014-Aug-13 19:33N 59°20' E 018°05'0 0.0
2014-Aug-13 18:33N 59°20' E 018°05'0 0.0
2014-Aug-13 17:33N 59°20' E 018°05'0 0.0
2014-Aug-13 16:33N 59°20' E 018°05'0 0.0
2014-Aug-13 15:33N 59°20' E 018°05'0 0.0
2014-Aug-13 14:33N 59°20' E 018°05'0 0.0
2014-Aug-13 13:21N 59°20' E 018°05'7 7.5
2014-Aug-13 12:25N 59°23' E 018°18'1 0.5
2014-Aug-13 09:26N 59°23' E 018°20'  

Dump ship's entire track history